createdAt,value
2023-02-11T00:00:19.577Z,17.73
2023-02-11T00:02:48.030Z,12.77
2023-02-11T00:05:15.304Z,11.43
2023-02-11T00:07:42.080Z,22.53
2023-02-11T00:10:09.370Z,13.43
2023-02-11T00:12:38.129Z,15.27
2023-02-11T00:15:07.651Z,12.40
2023-02-11T00:17:34.624Z,13.00
2023-02-11T00:20:01.450Z,10.97
2023-02-11T00:22:28.224Z,17.70
2023-02-11T00:24:57.021Z,12.03
2023-02-11T00:27:23.796Z,12.20
2023-02-11T00:29:51.594Z,9.73
2023-02-11T00:32:18.387Z,13.93
2023-02-11T00:34:45.101Z,11.07
2023-02-11T00:37:12.119Z,10.23
2023-02-11T00:39:41.921Z,21.87
2023-02-11T00:42:16.962Z,12.97
2023-02-11T00:44:45.221Z,11.97
2023-02-11T00:47:12.074Z,16.57
2023-02-11T00:49:40.311Z,18.40
2023-02-11T00:52:07.523Z,12.70
2023-02-11T00:54:34.887Z,16.53
2023-02-11T00:57:01.642Z,9.30
2023-02-11T00:59:28.686Z,18.83
2023-02-11T01:01:55.805Z,15.00
2023-02-11T01:04:22.838Z,16.53
2023-02-11T01:06:52.136Z,16.10
2023-02-11T01:09:21.097Z,11.63
2023-02-11T01:11:48.343Z,7.57
2023-02-11T01:14:16.073Z,15.83
2023-02-11T01:16:43.364Z,14.03
2023-02-11T01:19:10.573Z,14.10
2023-02-11T01:21:37.325Z,15.50
2023-02-11T01:24:04.242Z,11.40
2023-02-11T01:26:30.990Z,9.63
2023-02-11T01:29:00.719Z,16.60
2023-02-11T01:31:27.903Z,9.00
2023-02-11T01:33:54.653Z,15.80
2023-02-11T01:36:21.361Z,13.03
2023-02-11T01:38:49.855Z,21.87
2023-02-11T01:41:16.768Z,16.57
2023-02-11T01:43:46.478Z,22.63
2023-02-11T01:46:28.309Z,20.10
2023-02-11T01:49:04.597Z,25.57
2023-02-11T01:51:39.776Z,20.30
2023-02-11T01:54:27.384Z,21.47
2023-02-11T01:57:16.272Z,22.50
2023-02-11T02:00:05.288Z,26.80
2023-02-11T02:03:07.829Z,15.30
2023-02-11T02:05:59.657Z,17.50
2023-02-11T02:08:35.526Z,18.03
2023-02-11T02:11:03.680Z,18.17
2023-02-11T02:13:33.216Z,14.27
2023-02-11T02:16:11.532Z,9.97
2023-02-11T02:19:03.907Z,14.87
2023-02-11T02:22:18.180Z,15.40
2023-02-11T02:25:00.889Z,22.87
2023-02-11T02:27:46.876Z,22.80
2023-02-11T02:30:26.121Z,10.67
2023-02-11T02:32:57.921Z,21.67
2023-02-11T02:36:09.447Z,14.57
2023-02-11T02:38:55.541Z,14.07
2023-02-11T02:41:32.416Z,18.87
2023-02-11T02:43:59.359Z,11.20
2023-02-11T02:46:30.053Z,12.20
2023-02-11T02:48:57.761Z,16.67
2023-02-11T02:51:47.795Z,6.97
2023-02-11T02:54:45.698Z,10.80
2023-02-11T02:57:36.336Z,13.07
2023-02-11T03:00:29.738Z,18.27
2023-02-11T03:03:26.073Z,12.60
2023-02-11T03:06:21.057Z,17.70
2023-02-11T03:09:11.834Z,11.63
2023-02-11T03:11:39.914Z,15.73
2023-02-11T03:14:10.408Z,13.60
2023-02-11T03:16:39.238Z,19.20
2023-02-11T03:19:12.553Z,15.70
2023-02-11T03:21:41.615Z,18.63
2023-02-11T03:24:14.527Z,19.10
2023-02-11T03:26:49.048Z,15.80
2023-02-11T03:29:26.182Z,20.57
2023-02-11T03:32:17.646Z,16.30
2023-02-11T03:35:06.486Z,14.33
2023-02-11T03:37:36.240Z,16.13
2023-02-11T03:40:18.942Z,14.57
2023-02-11T03:42:53.380Z,13.87
2023-02-11T03:45:23.328Z,18.53
2023-02-11T03:47:59.950Z,20.13
2023-02-11T03:50:27.953Z,19.53
2023-02-11T03:52:57.160Z,14.63
2023-02-11T03:55:26.018Z,18.03
2023-02-11T03:57:52.781Z,19.90
2023-02-11T04:00:19.557Z,16.00
2023-02-11T04:02:46.426Z,20.43
2023-02-11T04:05:16.171Z,16.23
2023-02-11T04:07:42.980Z,17.43
2023-02-11T04:10:11.393Z,20.47
2023-02-11T04:12:38.254Z,14.10
2023-02-11T04:15:05.668Z,16.53
2023-02-11T04:17:32.361Z,21.10
2023-02-11T04:19:59.131Z,16.63
2023-02-11T04:22:25.933Z,21.90
2023-02-11T04:24:52.663Z,24.10
2023-02-11T04:27:19.442Z,21.40
2023-02-11T04:29:46.184Z,21.07
2023-02-11T04:32:13.147Z,25.50
2023-02-11T04:34:40.029Z,26.97
2023-02-11T04:37:07.268Z,17.77
2023-02-11T04:39:34.646Z,24.80
2023-02-11T04:42:01.522Z,19.83
2023-02-11T04:44:28.483Z,21.50
2023-02-11T04:46:55.169Z,26.63
2023-02-11T04:49:22.059Z,22.23
2023-02-11T04:51:49.637Z,20.50
2023-02-11T04:54:16.874Z,24.90
2023-02-11T04:56:43.835Z,26.00
2023-02-11T04:59:11.477Z,26.47
2023-02-11T05:01:38.285Z,22.60
2023-02-11T05:04:05.204Z,26.20
2023-02-11T05:06:32.166Z,20.77
2023-02-11T05:08:58.906Z,22.03
2023-02-11T05:11:26.176Z,20.47
2023-02-11T05:13:53.421Z,14.47
2023-02-11T05:16:20.717Z,20.73
2023-02-11T05:18:47.630Z,24.80
2023-02-11T05:21:17.501Z,16.10
2023-02-11T05:23:45.294Z,23.67
2023-02-11T05:26:12.810Z,21.43
2023-02-11T05:28:40.286Z,21.77
2023-02-11T05:31:07.525Z,23.97
2023-02-11T05:33:34.481Z,21.57
2023-02-11T05:36:08.272Z,20.53
2023-02-11T05:38:35.814Z,20.97
2023-02-11T05:41:03.108Z,25.43
2023-02-11T05:43:29.885Z,25.53
2023-02-11T05:45:57.088Z,19.60
2023-02-11T05:48:24.092Z,32.93
2023-02-11T05:50:50.829Z,24.50
2023-02-11T05:53:17.690Z,26.70
2023-02-11T05:55:44.722Z,29.80
2023-02-11T05:58:11.498Z,28.87
2023-02-11T06:00:38.309Z,27.20
2023-02-11T06:03:05.612Z,32.77
2023-02-11T06:05:32.615Z,33.47
2023-02-11T06:07:59.721Z,31.37
2023-02-11T06:10:26.825Z,30.47
2023-02-11T06:12:53.585Z,33.07
2023-02-11T06:15:20.455Z,37.70
2023-02-11T06:17:47.209Z,34.77
2023-02-11T06:20:14.132Z,29.70
2023-02-11T06:22:40.970Z,30.23
2023-02-11T06:25:07.837Z,32.83
2023-02-11T06:27:34.553Z,33.37
2023-02-11T06:30:01.309Z,39.93
2023-02-11T06:32:43.870Z,31.37
2023-02-11T06:35:12.312Z,31.30
2023-02-11T06:37:39.926Z,32.07
2023-02-11T06:40:07.069Z,30.47
2023-02-11T06:42:34.566Z,27.63
2023-02-11T06:45:01.371Z,30.20
2023-02-11T06:47:28.185Z,31.03
2023-02-11T06:49:54.901Z,32.40
2023-02-11T06:52:21.721Z,39.33
2023-02-11T06:54:48.420Z,32.27
2023-02-11T06:57:15.150Z,33.23
2023-02-11T06:59:41.986Z,29.53
2023-02-11T07:02:11.847Z,37.43
2023-02-11T07:04:38.615Z,33.37
2023-02-11T07:07:05.392Z,27.93
2023-02-11T07:09:32.345Z,32.87
2023-02-11T07:11:59.068Z,41.83
2023-02-11T07:14:25.826Z,38.93
2023-02-11T07:16:52.634Z,32.17
2023-02-11T07:19:19.369Z,32.13
2023-02-11T07:21:46.103Z,31.30
2023-02-11T07:24:13.287Z,36.20
2023-02-11T07:26:40.339Z,30.63
2023-02-11T07:29:07.272Z,28.90
2023-02-11T07:31:34.171Z,29.63
2023-02-11T07:34:02.385Z,36.10
2023-02-11T07:36:31.751Z,35.37
2023-02-11T07:38:59.988Z,34.43
2023-02-11T07:41:27.273Z,32.07
2023-02-11T07:43:54.742Z,29.03
2023-02-11T07:46:24.364Z,33.60
2023-02-11T07:48:51.577Z,32.00
2023-02-11T07:51:27.379Z,40.00
2023-02-11T07:53:55.392Z,40.27
2023-02-11T07:56:22.990Z,41.47
2023-02-11T07:58:50.417Z,35.80
2023-02-11T08:01:24.908Z,35.27
2023-02-11T08:03:52.681Z,35.50
2023-02-11T08:06:21.321Z,37.40
2023-02-11T08:08:48.946Z,35.47
2023-02-11T08:11:22.513Z,37.67
2023-02-11T08:13:49.277Z,44.73
2023-02-11T08:16:22.213Z,37.07
2023-02-11T08:18:49.841Z,42.83
2023-02-11T08:21:17.411Z,37.10
2023-02-11T08:23:44.797Z,32.87
2023-02-11T08:26:17.507Z,36.73
2023-02-11T08:28:46.298Z,43.00
2023-02-11T08:31:16.029Z,38.80
2023-02-11T08:33:43.119Z,35.60
2023-02-11T08:36:15.730Z,35.37
2023-02-11T08:38:43.073Z,32.20
2023-02-11T08:41:09.881Z,37.97
2023-02-11T08:43:37.485Z,36.83
2023-02-11T08:46:05.649Z,38.73
2023-02-11T08:48:32.631Z,30.30
2023-02-11T08:50:59.901Z,37.97
2023-02-11T08:53:26.869Z,34.67
2023-02-11T08:55:55.368Z,30.50
2023-02-11T08:58:22.798Z,31.90
2023-02-11T09:00:50.395Z,41.47
2023-02-11T09:03:17.916Z,34.17
2023-02-11T09:05:46.981Z,39.97
2023-02-11T09:08:17.274Z,36.67
2023-02-11T09:10:44.185Z,39.27
2023-02-11T09:13:11.337Z,35.23
2023-02-11T09:15:38.085Z,33.20
2023-02-11T09:18:05.835Z,39.00
2023-02-11T09:20:32.680Z,35.47
2023-02-11T09:22:59.909Z,31.77
2023-02-11T09:25:26.851Z,37.80
2023-02-11T09:27:53.826Z,36.23
2023-02-11T09:30:20.966Z,36.27
2023-02-11T09:32:47.989Z,30.90
2023-02-11T09:35:14.789Z,38.80
2023-02-11T09:37:41.589Z,34.87
2023-02-11T09:40:09.139Z,37.03
2023-02-11T09:43:02.346Z,33.10
2023-02-11T09:45:31.739Z,30.80
2023-02-11T09:48:05.827Z,35.20
2023-02-11T09:50:36.643Z,36.80
2023-02-11T09:53:27.213Z,29.90
2023-02-11T09:56:00.952Z,34.33
2023-02-11T09:58:32.320Z,29.83
2023-02-11T10:01:13.781Z,36.33
2023-02-11T10:04:02.360Z,40.43
2023-02-11T10:06:36.631Z,32.27
2023-02-11T10:09:20.830Z,31.20
2023-02-11T10:12:25.458Z,36.90
2023-02-11T10:15:20.380Z,35.67
2023-02-11T10:18:01.007Z,32.30
2023-02-11T10:20:47.954Z,32.07
2023-02-11T10:23:31.016Z,32.87
2023-02-11T10:25:58.929Z,35.97
2023-02-11T10:28:34.843Z,31.03
2023-02-11T10:31:21.472Z,31.20
2023-02-11T10:33:59.031Z,27.50
2023-02-11T10:36:31.172Z,30.43
2023-02-11T10:39:22.616Z,28.43
2023-02-11T10:42:18.769Z,28.33
2023-02-11T10:45:02.338Z,23.00
2023-02-11T10:47:36.810Z,20.90
2023-02-11T10:50:22.899Z,22.10
2023-02-11T10:52:49.785Z,23.03
2023-02-11T10:55:26.012Z,22.73
2023-02-11T10:57:56.722Z,21.30
2023-02-11T11:00:39.025Z,24.83
2023-02-11T11:03:21.648Z,25.33
2023-02-11T11:05:57.295Z,19.57
2023-02-11T11:08:48.596Z,23.73
2023-02-11T11:11:20.879Z,20.17
2023-02-11T11:13:53.808Z,19.50
2023-02-11T11:16:23.997Z,19.87
2023-02-11T11:18:53.555Z,18.57
2023-02-11T11:21:28.797Z,20.20
2023-02-11T11:23:59.187Z,18.53
2023-02-11T11:26:29.513Z,20.40
2023-02-11T11:29:02.354Z,17.23
2023-02-11T11:31:35.641Z,23.37
2023-02-11T11:34:20.777Z,19.30
2023-02-11T11:36:48.144Z,16.23
2023-02-11T11:39:22.788Z,15.87
2023-02-11T11:41:52.650Z,16.30
2023-02-11T11:44:29.176Z,20.10
2023-02-11T11:47:12.749Z,20.97
2023-02-11T11:50:03.393Z,20.13
2023-02-11T11:52:36.526Z,17.83
2023-02-11T11:55:17.025Z,19.23
2023-02-11T11:57:44.070Z,15.63
2023-02-11T12:00:17.464Z,15.53
2023-02-11T12:03:06.028Z,13.37
2023-02-11T12:05:45.132Z,11.40
2023-02-11T12:08:41.384Z,18.00
2023-02-11T12:11:29.976Z,12.60
2023-02-11T12:14:06.180Z,11.93
2023-02-11T12:16:36.004Z,16.10
2023-02-11T12:19:33.861Z,12.57
2023-02-11T12:22:10.968Z,17.23
2023-02-11T12:25:15.336Z,17.03
2023-02-11T12:28:20.087Z,23.43
2023-02-11T12:31:13.109Z,12.53
2023-02-11T12:34:14.080Z,17.27
2023-02-11T12:37:07.902Z,12.00
2023-02-11T12:39:45.418Z,11.57
2023-02-11T12:42:56.230Z,13.97
2023-02-11T12:46:04.427Z,14.87
2023-02-11T12:48:52.777Z,14.27
2023-02-11T12:51:40.871Z,32.60
2023-02-11T12:54:10.976Z,15.67
2023-02-11T12:57:02.369Z,26.67
2023-02-11T12:59:29.054Z,16.07
2023-02-11T13:01:56.970Z,97.13
2023-02-11T13:04:35.414Z,27.57
2023-02-11T13:07:37.253Z,31.30
2023-02-11T13:10:21.548Z,18.20
2023-02-11T13:13:10.217Z,33.53
2023-02-11T13:15:37.436Z,40.30
2023-02-11T13:18:36.988Z,35.10
2023-02-11T13:21:16.324Z,22.57
2023-02-11T13:24:07.944Z,10.87
2023-02-11T13:26:46.438Z,11.43
2023-02-11T13:29:34.044Z,8.37
2023-02-11T13:32:08.942Z,11.80
2023-02-11T13:34:42.014Z,12.47
2023-02-11T13:37:26.858Z,12.33
2023-02-11T13:40:01.199Z,9.47
2023-02-11T13:42:29.753Z,9.57
2023-02-11T13:44:57.142Z,9.87
2023-02-11T13:47:31.270Z,7.63
2023-02-11T13:50:00.002Z,9.60
2023-02-11T13:52:31.639Z,7.30
2023-02-11T13:55:21.925Z,10.03
2023-02-11T13:58:07.085Z,10.20
2023-02-11T14:00:33.775Z,10.07
2023-02-11T14:03:31.146Z,7.97
2023-02-11T14:06:28.720Z,6.50
2023-02-11T14:09:13.552Z,7.90
2023-02-11T14:11:40.811Z,6.30
2023-02-11T14:14:23.835Z,10.63
2023-02-11T14:17:02.373Z,11.00
2023-02-11T14:19:37.423Z,12.73
2023-02-11T14:22:06.261Z,12.97
2023-02-11T14:24:33.000Z,11.80
2023-02-11T14:27:20.750Z,13.90
2023-02-11T14:29:56.223Z,13.90
2023-02-11T14:32:42.648Z,11.43
2023-02-11T14:35:28.312Z,8.00
2023-02-11T14:38:07.428Z,10.37
2023-02-11T14:41:02.202Z,10.63
2023-02-11T14:43:36.017Z,7.17
2023-02-11T14:46:03.317Z,15.77
2023-02-11T14:48:39.005Z,6.53
2023-02-11T14:51:12.582Z,12.00
2023-02-11T14:53:45.137Z,8.23
2023-02-11T14:56:31.601Z,10.20
2023-02-11T14:58:58.945Z,9.43
2023-02-11T15:01:40.520Z,8.40
2023-02-11T15:04:24.214Z,10.63
2023-02-11T15:06:51.388Z,12.53
2023-02-11T15:09:25.617Z,8.67
2023-02-11T15:11:53.259Z,8.50
2023-02-11T15:14:25.509Z,10.77
2023-02-11T15:16:54.742Z,8.03
2023-02-11T15:19:26.723Z,8.60
2023-02-11T15:21:54.083Z,8.70
2023-02-11T15:24:24.338Z,8.93
2023-02-11T15:27:20.926Z,9.17
2023-02-11T15:29:50.582Z,7.03
2023-02-11T15:32:18.606Z,28.33
2023-02-11T15:34:47.244Z,39.33
2023-02-11T15:37:23.077Z,16.53
2023-02-11T15:39:49.832Z,10.17
2023-02-11T15:42:20.612Z,11.60
2023-02-11T15:44:54.293Z,9.17
2023-02-11T15:47:29.468Z,19.70
2023-02-11T15:49:56.237Z,15.00
2023-02-11T15:52:26.497Z,13.67
2023-02-11T15:54:56.005Z,10.77
2023-02-11T15:57:23.172Z,13.43
2023-02-11T15:59:53.460Z,8.90
2023-02-11T16:02:31.013Z,9.93
2023-02-11T16:05:00.712Z,9.07
2023-02-11T16:07:50.387Z,11.20
2023-02-11T16:10:19.960Z,8.73
2023-02-11T16:12:53.999Z,8.63
2023-02-11T16:15:42.179Z,10.00
2023-02-11T16:18:21.983Z,14.83
2023-02-11T16:20:51.894Z,14.67
2023-02-11T16:23:38.409Z,14.10
2023-02-11T16:26:22.252Z,10.90
2023-02-11T16:28:49.391Z,14.30
2023-02-11T16:31:16.468Z,9.63
2023-02-11T16:33:43.300Z,9.67
2023-02-11T16:36:14.676Z,11.43
2023-02-11T16:38:41.425Z,12.43
2023-02-11T16:41:11.687Z,10.63
2023-02-11T16:43:39.866Z,10.57
2023-02-11T16:46:06.767Z,12.13
2023-02-11T16:48:33.847Z,13.13
2023-02-11T16:51:00.888Z,9.93
2023-02-11T16:53:27.685Z,10.70
2023-02-11T16:55:54.998Z,14.00
2023-02-11T16:58:21.750Z,13.57
2023-02-11T17:00:48.740Z,13.97
2023-02-11T17:03:23.129Z,15.60
2023-02-11T17:05:55.663Z,14.03
2023-02-11T17:08:22.680Z,14.53
2023-02-11T17:10:49.777Z,18.13
2023-02-11T17:13:16.892Z,12.30
2023-02-11T17:15:43.614Z,10.40
2023-02-11T17:18:14.221Z,11.23
2023-02-11T17:20:41.632Z,13.83
2023-02-11T17:23:08.701Z,10.20
2023-02-11T17:25:37.317Z,11.93
2023-02-11T17:28:08.925Z,11.27
2023-02-11T17:30:35.999Z,13.73
2023-02-11T17:33:02.915Z,11.93
2023-02-11T17:35:29.690Z,14.70
2023-02-11T17:37:58.189Z,12.03
2023-02-11T17:40:24.961Z,11.60
2023-02-11T17:42:51.691Z,10.90
2023-02-11T17:45:21.101Z,12.97
2023-02-11T17:47:49.453Z,11.93
2023-02-11T17:50:16.307Z,11.67
2023-02-11T17:52:43.194Z,14.07
2023-02-11T17:55:09.987Z,11.23
2023-02-11T17:57:37.037Z,13.50
2023-02-11T18:00:07.739Z,9.90
2023-02-11T18:02:39.508Z,11.93
2023-02-11T18:05:07.110Z,10.87
2023-02-11T18:07:34.001Z,11.33
2023-02-11T18:10:00.810Z,15.73
2023-02-11T18:12:27.661Z,14.43
2023-02-11T18:14:57.558Z,18.63
2023-02-11T18:17:25.700Z,21.60
2023-02-11T18:19:56.117Z,14.40
2023-02-11T18:22:24.425Z,20.20
2023-02-11T18:24:53.024Z,44.70
2023-02-11T18:27:23.534Z,22.33
2023-02-11T18:29:50.556Z,17.30
2023-02-11T18:32:17.292Z,13.73
2023-02-11T18:34:44.072Z,11.90
2023-02-11T18:37:13.220Z,11.90
2023-02-11T18:39:40.526Z,10.30
2023-02-11T18:42:07.331Z,11.20
2023-02-11T18:44:34.134Z,11.20
2023-02-11T18:47:01.124Z,12.83
2023-02-11T18:49:27.873Z,9.97
2023-02-11T18:51:54.914Z,13.43
2023-02-11T18:54:21.694Z,17.87
2023-02-11T18:56:48.444Z,18.73
2023-02-11T18:59:15.212Z,18.07
2023-02-11T19:01:46.644Z,23.43
2023-02-11T19:04:18.848Z,23.90
2023-02-11T19:06:49.410Z,44.73
2023-02-11T19:09:19.526Z,53.47
2023-02-11T19:11:54.152Z,55.43
2023-02-11T19:14:25.582Z,75.28
2023-02-11T19:16:55.584Z,52.40
2023-02-11T19:19:23.786Z,49.73
2023-02-11T19:21:50.853Z,31.80
2023-02-11T19:24:21.314Z,32.77
2023-02-11T19:26:49.651Z,32.53
2023-02-11T19:29:17.181Z,38.50
2023-02-11T19:31:44.819Z,46.30
2023-02-11T19:34:14.117Z,28.13
2023-02-11T19:36:41.489Z,34.03
2023-02-11T19:39:08.992Z,29.03
2023-02-11T19:41:36.536Z,26.77
2023-02-11T19:44:05.457Z,32.20
2023-02-11T19:46:36.317Z,33.53
2023-02-11T19:49:05.250Z,17.13
2023-02-11T19:51:38.966Z,24.07
2023-02-11T19:54:06.860Z,19.83
2023-02-11T19:56:34.481Z,20.00
2023-02-11T19:59:02.797Z,22.47
2023-02-11T20:01:29.621Z,13.50
2023-02-11T20:03:57.518Z,19.00
2023-02-11T20:06:26.669Z,17.87
2023-02-11T20:08:57.985Z,24.17
2023-02-11T20:11:25.863Z,14.50
2023-02-11T20:13:52.625Z,17.90
2023-02-11T20:16:21.943Z,17.57
2023-02-11T20:18:49.925Z,15.37
2023-02-11T20:21:20.332Z,14.87
2023-02-11T20:23:47.666Z,14.47
2023-02-11T20:26:20.782Z,11.63
2023-02-11T20:28:48.908Z,14.37
2023-02-11T20:31:16.910Z,18.00
2023-02-11T20:33:45.172Z,12.83
2023-02-11T20:36:18.876Z,16.10
2023-02-11T20:38:46.034Z,15.77
2023-02-11T20:41:15.560Z,12.77
2023-02-11T20:43:47.284Z,18.67
2023-02-11T20:46:16.616Z,15.17
2023-02-11T20:48:43.948Z,15.70
2023-02-11T20:51:14.932Z,14.10
2023-02-11T20:53:44.023Z,15.57
2023-02-11T20:56:12.582Z,14.17
2023-02-11T20:58:39.948Z,16.67
2023-02-11T21:01:22.662Z,16.97
2023-02-11T21:03:52.984Z,15.20
2023-02-11T21:06:20.669Z,15.73
2023-02-11T21:08:47.784Z,16.23
2023-02-11T21:11:15.150Z,19.83
2023-02-11T21:13:43.286Z,14.83
2023-02-11T21:16:14.726Z,19.63
2023-02-11T21:18:42.035Z,17.43
2023-02-11T21:21:09.259Z,18.17
2023-02-11T21:23:36.047Z,20.50
2023-02-11T21:26:02.793Z,22.03
2023-02-11T21:28:29.601Z,20.10
2023-02-11T21:30:57.556Z,19.90
2023-02-11T21:33:27.054Z,16.60
2023-02-11T21:35:58.262Z,18.27
2023-02-11T21:38:26.167Z,14.50
2023-02-11T21:40:53.689Z,16.03
2023-02-11T21:43:20.589Z,17.27
2023-02-11T21:45:50.179Z,15.80
2023-02-11T21:48:17.969Z,23.57
2023-02-11T21:50:47.112Z,15.83
2023-02-11T21:53:14.636Z,16.40
2023-02-11T21:55:42.597Z,20.00
2023-02-11T21:58:11.020Z,20.53
2023-02-11T22:00:38.495Z,16.40
2023-02-11T22:03:05.960Z,18.77
2023-02-11T22:05:32.904Z,15.70
2023-02-11T22:07:59.661Z,20.40
2023-02-11T22:10:26.412Z,19.27
2023-02-11T22:12:53.180Z,18.37
2023-02-11T22:15:19.966Z,18.17
2023-02-11T22:17:46.701Z,18.73
2023-02-11T22:20:13.529Z,15.53
2023-02-11T22:22:40.283Z,19.33
2023-02-11T22:25:07.454Z,17.40
2023-02-11T22:27:34.254Z,18.47
2023-02-11T22:30:01.025Z,21.27
2023-02-11T22:32:27.770Z,16.00
2023-02-11T22:34:54.493Z,19.27
2023-02-11T22:37:21.229Z,18.37
2023-02-11T22:39:48.021Z,21.63
2023-02-11T22:42:14.845Z,16.87
2023-02-11T22:44:41.579Z,17.60
2023-02-11T22:47:08.386Z,16.50
2023-02-11T22:49:35.641Z,18.10
2023-02-11T22:52:02.464Z,19.73
2023-02-11T22:54:29.182Z,15.57
2023-02-11T22:56:55.893Z,15.87
2023-02-11T22:59:22.598Z,14.70
2023-02-11T23:01:49.699Z,16.90
2023-02-11T23:04:19.172Z,18.57
2023-02-11T23:06:47.582Z,20.47
2023-02-11T23:09:14.450Z,17.23
2023-02-11T23:11:41.559Z,15.53
2023-02-11T23:14:10.069Z,19.13
2023-02-11T23:16:36.843Z,24.90
2023-02-11T23:19:07.821Z,21.13
2023-02-11T23:21:37.220Z,15.37
2023-02-11T23:24:15.640Z,17.13
2023-02-11T23:26:43.171Z,18.00
2023-02-11T23:29:10.500Z,22.00
2023-02-11T23:31:40.727Z,18.03
2023-02-11T23:34:08.356Z,16.07
2023-02-11T23:36:35.424Z,18.50
2023-02-11T23:39:02.572Z,15.80
2023-02-11T23:41:29.449Z,19.37
2023-02-11T23:43:57.802Z,21.90
2023-02-11T23:46:26.166Z,18.40
2023-02-11T23:48:53.295Z,22.93
2023-02-11T23:51:20.599Z,18.37
2023-02-11T23:53:49.170Z,19.40
2023-02-11T23:56:22.984Z,17.70
2023-02-11T23:58:51.785Z,18.97
